Time;durP1;ratioP1;P1;durP2;ratioP2;P2;SDS_P1;SDS_P2;PMS_P1;PMS_P2;Temp;Humidity;BMP_temperature;BMP_pressure;BME280_temperature;BME280_humidity;BME280_pressure;Samples;Min_cycle;Max_cycle;Signal;HPM_P1;HPM_P2
2021/08/03 00:02:22;;;;;;;3.83;2.00;;;;;;;18.14;72.83;100200.38;1729261;80;20971;-75
2021/08/03 00:04:49;;;;;;;3.77;2.10;;;;;;;18.10;72.93;100210.20;1744021;81;21002;-74
2021/08/03 00:07:21;;;;;;;3.10;2.13;;;;;;;18.03;73.01;100203.37;1728107;80;20981;-74
2021/08/03 00:09:48;;;;;;;3.05;1.95;;;;;;;17.96;73.29;100201.67;1730923;81;21166;-74
2021/08/03 00:12:18;;;;;;;4.40;2.20;;;;;;;17.89;73.63;100206.75;1738144;80;21066;-74
2021/08/03 00:14:48;;;;;;;4.07;2.43;;;;;;;17.85;74.16;100205.79;1734183;80;21057;-74
2021/08/03 00:17:20;;;;;;;3.77;2.33;;;;;;;17.81;74.42;100206.98;1736129;81;21046;-73
2021/08/03 00:19:48;;;;;;;3.47;2.23;;;;;;;17.77;74.71;100207.92;1725009;81;21090;-75
2021/08/03 00:22:15;;;;;;;3.53;2.10;;;;;;;17.75;74.86;100209.55;1736494;80;22075;-77
2021/08/03 00:24:43;;;;;;;3.60;2.30;;;;;;;17.73;75.06;100211.75;1718243;81;21174;-75
2021/08/03 00:27:09;;;;;;;3.37;2.10;;;;;;;17.71;75.55;100201.84;1703037;83;21121;-76
2021/08/03 00:29:36;;;;;;;4.23;2.30;;;;;;;17.67;75.75;100206.80;1695159;83;21581;-77
2021/08/03 00:32:05;;;;;;;4.20;2.00;;;;;;;17.67;75.90;100208.16;1661847;84;21111;-75
2021/08/03 00:34:37;;;;;;;3.87;1.90;;;;;;;17.65;76.04;100209.04;1642725;86;21124;-77
2021/08/03 00:37:07;;;;;;;3.20;1.87;;;;;;;17.63;76.19;100218.00;1681642;81;21207;-70
2021/08/03 00:39:36;;;;;;;4.40;2.20;;;;;;;17.58;76.34;100217.04;1739623;81;21042;-71
2021/08/03 00:42:06;;;;;;;5.30;2.17;;;;;;;17.56;76.52;100218.45;1726858;81;21093;-71
2021/08/03 00:44:46;;;;;;;4.00;2.00;;;;;;;17.55;76.62;100219.01;1727370;81;21105;-71
2021/08/03 00:47:17;;;;;;;3.10;2.10;;;;;;;17.54;76.65;100213.94;1697460;83;22162;-71
2021/08/03 00:49:45;;;;;;;3.10;2.03;;;;;;;17.52;76.68;100217.48;1690898;83;21107;-71
2021/08/03 00:52:14;;;;;;;6.10;2.37;;;;;;;17.51;76.78;100219.39;1709272;82;21057;-72
2021/08/03 00:54:42;;;;;;;4.00;2.10;;;;;;;17.50;76.81;100225.88;1710261;82;21136;-72
2021/08/03 00:57:12;;;;;;;3.77;2.10;;;;;;;17.48;76.80;100224.06;1708960;82;20970;-72
2021/08/03 00:59:40;;;;;;;4.90;2.07;;;;;;;17.47;76.88;100225.19;1710962;82;21094;-71
2021/08/03 01:02:08;;;;;;;3.20;2.20;;;;;;;17.46;76.89;100221.43;1704662;82;21321;-71
2021/08/03 01:04:35;;;;;;;2.63;1.93;;;;;;;17.42;77.02;100218.55;1705434;82;21081;-70
2021/08/03 01:07:19;;;;;;;2.80;1.97;;;;;;;17.40;77.18;100222.11;1707784;82;21102;-71
2021/08/03 01:09:58;;;;;;;4.23;1.93;;;;;;;17.38;77.38;100221.64;1707063;82;21077;-71
2021/08/03 01:12:53;;;;;;;3.20;2.37;;;;;;;17.35;77.43;100223.61;1701981;82;21164;-71
2021/08/03 01:15:26;;;;;;;3.50;2.00;;;;;;;17.32;77.52;100233.12;1707826;82;21051;-71
2021/08/03 01:18:22;;;;;;;4.40;2.15;;;;;;;17.28;77.83;100228.10;1708950;82;21018;-71
2021/08/03 01:21:19;;;;;;;4.23;2.37;;;;;;;17.24;77.92;100225.78;1694619;82;21039;-71
2021/08/03 01:24:20;;;;;;;3.53;2.50;;;;;;;17.20;78.33;100231.53;1698666;82;21050;-71
2021/08/03 01:27:24;;;;;;;2.77;2.10;;;;;;;17.19;78.66;100229.16;1702553;82;21538;-71
2021/08/03 01:29:52;;;;;;;3.57;2.30;;;;;;;17.15;78.85;100233.59;1707869;82;20991;-70
2021/08/03 01:32:25;;;;;;;3.90;2.07;;;;;;;17.13;78.98;100238.48;1708125;82;21077;-71
2021/08/03 01:34:52;;;;;;;4.20;2.53;;;;;;;17.10;79.10;100245.28;1696340;83;21022;-71
2021/08/03 01:37:21;;;;;;;3.33;2.50;;;;;;;17.10;79.44;100248.78;1706326;82;21604;-71
2021/08/03 01:39:58;;;;;;;4.30;2.40;;;;;;;17.10;79.60;100251.48;1711884;82;21692;-71
2021/08/03 01:42:26;;;;;;;2.80;2.13;;;;;;;17.10;79.78;100247.42;1711718;82;21065;-71
2021/08/03 01:44:53;;;;;;;3.37;2.10;;;;;;;17.09;79.85;100254.50;1704545;82;21097;-71
2021/08/03 01:47:24;;;;;;;5.07;2.60;;;;;;;17.08;79.98;100261.00;1734864;82;21046;-71
2021/08/03 01:49:51;;;;;;;4.10;2.17;;;;;;;17.06;80.14;100252.41;1659030;84;21069;-71
2021/08/03 01:52:17;;;;;;;3.70;2.40;;;;;;;17.05;80.19;100258.36;1681592;82;21531;-71
2021/08/03 01:54:47;;;;;;;4.40;2.40;;;;;;;17.03;80.39;100259.77;1704605;82;21022;-70
2021/08/03 01:57:16;;;;;;;3.03;2.23;;;;;;;17.02;80.32;100264.93;1693484;82;21018;-71
2021/08/03 01:59:44;;;;;;;3.50;2.33;;;;;;;17.00;80.33;100270.62;1704552;82;21104;-70
2021/08/03 02:02:15;;;;;;;3.03;1.83;;;;;;;16.97;80.30;100272.58;1679014;84;21018;-71
2021/08/03 02:04:43;;;;;;;3.45;2.40;;;;;;;16.95;80.32;100277.50;1681573;82;21128;-71
2021/08/03 02:07:10;;;;;;;3.20;2.20;;;;;;;16.94;80.39;100275.88;1710868;82;21089;-71
2021/08/03 02:09:38;;;;;;;3.20;2.50;;;;;;;16.93;80.41;100278.34;1710435;82;20951;-70
2021/08/03 02:12:06;;;;;;;3.20;2.53;;;;;;;16.91;80.38;100283.23;1709168;82;21101;-70
2021/08/03 02:14:33;;;;;;;3.73;2.57;;;;;;;16.90;80.56;100274.91;1705671;82;21018;-71
2021/08/03 02:17:02;;;;;;;4.13;2.60;;;;;;;16.90;80.60;100279.52;1720742;82;21508;-70
2021/08/03 02:19:31;;;;;;;5.33;2.70;;;;;;;16.89;80.82;100280.06;1705218;82;21113;-72
2021/08/03 02:22:04;;;;;;;3.20;2.23;;;;;;;16.87;80.97;100282.27;1708088;82;21038;-70
2021/08/03 02:24:32;;;;;;;4.27;2.50;;;;;;;16.86;81.05;100285.52;1707692;82;21099;-71
2021/08/03 02:26:59;;;;;;;4.07;2.40;;;;;;;16.86;81.14;100290.12;1698583;82;21712;-70
2021/08/03 02:29:27;;;;;;;3.40;2.00;;;;;;;16.84;81.21;100292.31;1701860;82;21200;-71
2021/08/03 02:32:16;;;;;;;3.60;2.20;;;;;;;16.80;81.13;100294.82;1707488;82;21101;-70
2021/08/03 02:35:11;;;;;;;3.90;2.67;;;;;;;16.80;81.13;100294.82;1707610;82;21568;-71
2021/08/03 02:37:40;;;;;;;4.03;2.50;;;;;;;16.78;81.15;100294.35;1708793;82;22232;-71
2021/08/03 02:40:09;;;;;;;4.60;2.33;;;;;;;16.78;81.11;100294.35;1707677;82;21137;-71
2021/08/03 02:42:44;;;;;;;3.67;2.47;;;;;;;16.76;81.02;100299.23;1707153;82;21544;-71
2021/08/03 02:45:16;;;;;;;3.73;2.30;;;;;;;16.74;80.97;100311.39;1697017;82;21014;-71
2021/08/03 02:47:53;;;;;;;3.57;2.40;;;;;;;16.71;80.91;100320.88;1703210;82;21112;-70
2021/08/03 02:50:16;;;;;;;3.63;2.60;;;;;;;16.62;80.88;100313.29;1708391;82;21026;-71
2021/08/03 02:52:45;;;;;;;4.27;2.77;;;;;;;16.56;80.98;100322.03;1710663;82;21772;-71
2021/08/03 02:55:35;;;;;;;3.13;2.30;;;;;;;16.50;81.09;100319.75;1677394;83;21851;-70
2021/08/03 02:58:09;;;;;;;3.73;2.80;;;;;;;16.46;81.26;100320.90;1677288;82;21008;-71
2021/08/03 03:00:38;;;;;;;3.80;2.77;;;;;;;16.38;81.74;100319.69;1705466;82;21517;-71
2021/08/03 03:03:13;;;;;;;4.23;2.33;;;;;;;16.38;81.74;100319.69;1707735;82;21050;-71
2021/08/03 03:05:41;;;;;;;4.83;2.83;;;;;;;16.35;81.89;100326.23;1704677;82;21070;-72
2021/08/03 03:08:13;;;;;;;3.23;2.60;;;;;;;16.32;82.08;100330.88;1699942;82;22261;-71
2021/08/03 03:10:50;;;;;;;4.33;2.90;;;;;;;16.29;82.18;100330.95;1700618;82;21120;-70
2021/08/03 03:13:22;;;;;;;3.47;2.47;;;;;;;16.29;82.32;100336.90;1710799;82;21721;-71
2021/08/03 03:15:49;;;;;;;4.10;2.93;;;;;;;16.29;82.42;100335.00;1705375;82;21425;-71
2021/08/03 03:18:17;;;;;;;4.57;3.00;;;;;;;16.35;82.67;100342.41;1711138;82;21018;-71
2021/08/03 03:20:44;;;;;;;4.37;2.80;;;;;;;16.35;82.67;100342.41;1707448;82;21501;-71
2021/08/03 03:23:12;;;;;;;4.10;3.00;;;;;;;16.38;82.49;100340.46;1710548;82;21568;-71
2021/08/03 03:25:38;;;;;;;5.07;2.90;;;;;;;16.43;82.36;100343.06;1707124;82;21082;-71
2021/08/03 03:28:06;;;;;;;5.97;2.73;;;;;;;16.47;82.06;100333.27;1708373;82;21058;-71
2021/08/03 03:30:35;;;;;;;4.07;3.00;;;;;;;16.50;82.33;100338.06;1707895;84;21445;-71
2021/08/03 03:33:04;;;;;;;3.73;2.90;;;;;;;16.56;82.27;100348.20;1710115;82;21082;-71
2021/08/03 03:35:34;;;;;;;3.83;2.70;;;;;;;16.59;82.14;100352.44;1705257;82;21014;-71
2021/08/03 03:38:01;;;;;;;4.30;2.83;;;;;;;16.65;82.06;100352.58;1670318;82;21854;-72
2021/08/03 03:40:27;;;;;;;4.23;2.80;;;;;;;16.67;82.02;100352.27;1685960;82;21085;-72
2021/08/03 03:42:56;;;;;;;3.80;2.97;;;;;;;16.75;81.77;100362.38;1708444;82;21534;-72
2021/08/03 03:45:23;;;;;;;5.70;3.10;;;;;;;16.81;81.51;100361.70;1700255;82;21379;-72
2021/08/03 03:48:04;;;;;;;5.43;3.20;;;;;;;16.83;81.30;100365.70;1702492;82;21035;-72
2021/08/03 03:50:35;;;;;;;4.08;2.90;;;;;;;16.87;81.24;100368.03;1698165;82;21098;-72
2021/08/03 03:53:12;;;;;;;3.90;2.50;;;;;;;16.94;81.11;100367.61;1702616;82;21032;-72
2021/08/03 03:55:44;;;;;;;4.00;2.87;;;;;;;17.01;80.84;100372.59;1701192;82;21071;-71
2021/08/03 03:58:12;;;;;;;4.33;2.80;;;;;;;17.03;80.61;100367.70;1707479;82;21751;-72
2021/08/03 04:00:39;;;;;;;4.07;3.00;;;;;;;17.07;80.49;100378.12;1675232;84;21018;-71
2021/08/03 04:03:07;;;;;;;4.20;2.90;;;;;;;17.10;80.37;100372.91;1707051;82;21162;-72
2021/08/03 04:05:37;;;;;;;5.43;2.93;;;;;;;17.18;80.14;100376.80;1708584;82;21028;-72
2021/08/03 04:08:09;;;;;;;3.73;2.77;;;;;;;17.26;79.95;100375.27;1676496;84;20986;-71
2021/08/03 04:10:38;;;;;;;3.73;2.70;;;;;;;17.33;79.58;100377.77;1693013;82;21111;-72
2021/08/03 04:13:07;;;;;;;3.10;2.33;;;;;;;17.40;79.15;100377.34;1707581;84;21566;-71
2021/08/03 04:15:34;;;;;;;5.40;3.00;;;;;;;17.47;78.91;100387.19;1709221;82;21395;-72
2021/08/03 04:18:04;;;;;;;3.90;2.70;;;;;;;17.51;78.66;100384.67;1701186;82;20995;-71
2021/08/03 04:20:32;;;;;;;4.10;2.90;;;;;;;17.59;78.42;100384.71;1690520;82;21018;-71
2021/08/03 04:22:59;;;;;;;5.27;3.20;;;;;;;17.69;78.15;100373.41;1707426;84;21529;-71
2021/08/03 04:25:26;;;;;;;4.87;3.33;;;;;;;17.75;77.85;100373.53;1709127;82;21066;-70
2021/08/03 04:27:54;;;;;;;4.20;3.10;;;;;;;17.82;77.47;100364.46;1701356;82;21185;-71
2021/08/03 04:30:20;;;;;;;3.97;2.97;;;;;;;17.90;77.12;100373.18;1706853;82;20970;-71
2021/08/03 04:32:47;;;;;;;7.13;3.00;;;;;;;17.97;76.62;100378.14;1707908;83;21014;-71
2021/08/03 04:35:14;;;;;;;4.40;3.23;;;;;;;18.07;76.61;100383.83;1709117;82;22011;-71
2021/08/03 04:37:43;;;;;;;4.50;3.20;;;;;;;18.17;76.10;100375.45;1709318;82;20958;-70
2021/08/03 04:40:14;;;;;;;4.72;2.90;;;;;;;18.24;75.38;100377.93;1704385;82;28439;-71
2021/08/03 04:42:42;;;;;;;4.70;3.20;;;;;;;18.30;75.16;100385.35;1708493;82;21026;-71
2021/08/03 04:45:09;;;;;;;4.67;3.20;;;;;;;18.34;74.67;100376.84;1703494;82;21081;-71
2021/08/03 04:47:44;;;;;;;5.73;2.97;;;;;;;18.39;74.47;100375.90;1692000;82;21120;-71
2021/08/03 04:50:15;;;;;;;4.17;2.97;;;;;;;18.47;74.29;100375.94;1707812;82;21066;-71
2021/08/03 04:52:43;;;;;;;4.22;3.05;;;;;;;18.58;74.00;100378.34;1708615;82;21038;-71
2021/08/03 04:55:11;;;;;;;5.87;2.90;;;;;;;18.64;73.13;100377.88;1699017;82;21446;-71
2021/08/03 04:57:37;;;;;;;4.40;3.27;;;;;;;18.67;72.83;100383.22;1706367;82;21610;-71
2021/08/03 05:00:07;;;;;;;5.43;3.60;;;;;;;18.66;72.60;100376.23;1707692;82;22329;-71
2021/08/03 05:02:35;;;;;;;5.13;3.20;;;;;;;18.69;72.71;100374.22;1707905;82;21117;-72
2021/08/03 05:05:04;;;;;;;4.77;3.47;;;;;;;18.75;72.43;100374.34;1710121;82;21273;-71
2021/08/03 05:07:30;;;;;;;5.27;3.17;;;;;;;18.84;72.32;100375.16;1727699;81;21621;-70
2021/08/03 05:10:09;;;;;;;4.23;3.30;;;;;;;18.97;71.75;100382.89;1727113;81;20999;-72
2021/08/03 05:12:38;;;;;;;7.73;3.80;;;;;;;19.02;71.17;100380.58;1714855;81;21208;-72
2021/08/03 05:15:08;;;;;;;5.27;3.30;;;;;;;19.08;71.07;100387.43;1733565;81;20951;-72
2021/08/03 05:17:36;;;;;;;5.77;4.30;;;;;;;19.15;70.78;100383.69;1694895;83;21078;-72
2021/08/03 05:20:04;;;;;;;5.13;3.67;;;;;;;19.27;70.62;100383.06;1702524;82;21039;-71
2021/08/03 05:22:31;;;;;;;5.27;3.43;;;;;;;19.36;70.23;100388.70;1706570;82;21642;-72
2021/08/03 05:25:01;;;;;;;5.33;3.80;;;;;;;19.48;69.56;100396.20;1707696;82;21197;-71
2021/08/03 05:27:28;;;;;;;8.90;4.90;;;;;;;19.58;69.04;100397.22;1707762;82;21584;-73
2021/08/03 05:29:56;;;;;;;7.80;4.40;;;;;;;19.68;68.72;100394.77;1707299;82;21111;-71
2021/08/03 05:32:24;;;;;;;9.00;4.03;;;;;;;19.77;68.55;100399.59;1708830;82;21081;-72
2021/08/03 05:34:50;;;;;;;6.57;4.03;;;;;;;19.85;68.07;100400.70;1711856;82;21532;-71
2021/08/03 05:37:18;;;;;;;6.27;3.80;;;;;;;19.94;67.64;100402.02;1709375;82;21156;-71
2021/08/03 05:39:45;;;;;;;5.83;3.70;;;;;;;20.05;67.29;100401.92;1703904;82;21548;-72
2021/08/03 05:42:12;;;;;;;6.93;3.87;;;;;;;20.15;66.71;100398.84;1706663;82;21076;-72
2021/08/03 05:44:39;;;;;;;4.83;3.40;;;;;;;20.24;66.74;100395.55;1714298;82;21107;-71
2021/08/03 05:47:06;;;;;;;6.83;3.60;;;;;;;20.38;66.69;100394.75;1708959;82;21081;-71
2021/08/03 05:49:34;;;;;;;9.40;3.80;;;;;;;20.52;66.29;100394.55;1707560;82;22020;-71
2021/08/03 05:52:01;;;;;;;5.27;3.60;;;;;;;20.64;65.78;100391.14;1704623;82;21182;-71
2021/08/03 05:54:28;;;;;;;6.03;4.20;;;;;;;20.68;65.19;100398.85;1708820;82;21076;-71
2021/08/03 05:56:55;;;;;;;7.83;4.20;;;;;;;20.68;65.19;100408.35;1709271;82;20978;-72
2021/08/03 05:59:22;;;;;;;5.97;3.83;;;;;;;20.76;65.42;100410.23;1706782;82;21121;-72
2021/08/03 06:01:50;;;;;;;5.53;4.10;;;;;;;20.85;64.46;100412.30;1704312;82;21985;-71
2021/08/03 06:04:16;;;;;;;6.30;3.80;;;;;;;20.91;64.48;100414.84;1712402;82;21035;-71
2021/08/03 06:06:43;;;;;;;4.87;3.57;;;;;;;20.98;63.90;100421.89;1713517;82;21066;-72
2021/08/03 06:09:11;;;;;;;6.37;4.10;;;;;;;21.04;63.61;100423.30;1709042;82;21543;-70
2021/08/03 06:11:48;;;;;;;5.23;3.80;;;;;;;21.04;62.60;100423.30;1711400;82;21708;-71
2021/08/03 06:14:40;;;;;;;7.27;4.60;;;;;;;21.03;62.17;100429.86;1705988;82;20999;-70
2021/08/03 06:17:10;;;;;;;6.07;4.20;;;;;;;21.00;62.29;100431.88;1711401;82;20949;-70
2021/08/03 06:19:50;;;;;;;7.12;3.45;;;;;;;21.06;62.58;100439.50;1700368;82;20999;-72
2021/08/03 06:22:18;;;;;;;5.60;4.03;;;;;;;21.19;62.60;100436.30;1706472;82;21030;-72
2021/08/03 06:24:47;;;;;;;5.57;4.27;;;;;;;21.27;62.10;100427.27;1709428;82;21021;-72
2021/08/03 06:27:17;;;;;;;5.50;3.27;;;;;;;21.38;61.93;100433.11;1708592;82;21601;-72
2021/08/03 06:29:44;;;;;;;6.83;4.53;;;;;;;21.50;61.76;100432.39;1708495;82;21755;-71
2021/08/03 06:32:11;;;;;;;6.87;4.53;;;;;;;21.57;61.25;100432.64;1712491;82;21015;-71
2021/08/03 06:34:42;;;;;;;6.37;3.77;;;;;;;21.61;60.38;100436.84;1708191;82;21053;-70
2021/08/03 06:37:09;;;;;;;5.97;3.50;;;;;;;21.68;60.45;100428.93;1708420;82;21153;-72
2021/08/03 06:39:36;;;;;;;5.67;3.83;;;;;;;21.76;59.80;100427.50;1708520;82;21895;-71
2021/08/03 06:42:18;;;;;;;5.10;3.37;;;;;;;21.77;59.91;100432.37;1703196;82;21008;-71
2021/08/03 06:45:05;;;;;;;6.30;4.08;;;;;;;21.81;59.73;100437.35;1707548;82;26424;-71
2021/08/03 06:47:56;;;;;;;6.00;3.80;;;;;;;21.82;59.07;100432.73;1713499;82;20976;-72
2021/08/03 06:50:26;;;;;;;4.80;3.67;;;;;;;21.81;58.76;100444.16;1687967;82;21105;-72
2021/08/03 06:52:53;;;;;;;5.10;4.08;;;;;;;21.88;58.71;100446.33;1723330;81;21803;-70
2021/08/03 06:55:25;;;;;;;7.47;4.17;;;;;;;21.93;58.95;100454.28;1727424;81;21125;-72
2021/08/03 06:57:52;;;;;;;6.60;4.00;;;;;;;21.90;58.66;100453.02;1727447;83;21109;-72
2021/08/03 07:00:21;;;;;;;4.90;3.70;;;;;;;21.95;58.72;100452.03;1730219;81;21088;-72
2021/08/03 07:02:48;;;;;;;8.00;3.97;;;;;;;21.99;58.36;100451.58;1735850;81;20956;-71
2021/08/03 07:05:17;;;;;;;5.87;3.63;;;;;;;22.06;58.34;100453.75;1704331;82;21864;-73
2021/08/03 07:07:45;;;;;;;5.63;3.73;;;;;;;22.13;57.97;100456.14;1728473;82;21010;-71
2021/08/03 07:10:14;;;;;;;4.53;3.40;;;;;;;22.22;57.25;100456.88;1736813;81;21070;-72
2021/08/03 07:12:45;;;;;;;5.33;3.60;;;;;;;22.25;56.92;100454.05;1698866;83;21585;-72
2021/08/03 07:15:13;;;;;;;5.93;3.90;;;;;;;22.31;57.27;100456.78;1698833;83;21068;-71
2021/08/03 07:17:42;;;;;;;4.10;3.13;;;;;;;22.43;56.79;100453.26;1706398;81;21046;-71
2021/08/03 07:20:10;;;;;;;4.33;3.77;;;;;;;22.56;56.52;100452.12;1722457;81;21102;-72
2021/08/03 07:22:38;;;;;;;7.33;4.23;;;;;;;22.70;56.40;100453.14;1705918;82;21153;-72
2021/08/03 07:25:06;;;;;;;5.30;3.80;;;;;;;22.84;55.75;100444.64;1706682;82;21143;-72
2021/08/03 07:27:33;;;;;;;5.40;3.63;;;;;;;23.01;55.43;100443.05;1707087;82;21184;-72
2021/08/03 07:30:02;;;;;;;3.77;3.37;;;;;;;23.16;54.54;100447.80;1709681;82;21696;-72
2021/08/03 07:32:29;;;;;;;5.87;4.07;;;;;;;23.25;53.94;100445.48;1706239;82;21038;-71
2021/08/03 07:34:56;;;;;;;5.33;3.50;;;;;;;23.33;53.45;100446.72;1705271;82;21094;-73
2021/08/03 07:37:22;;;;;;;5.53;3.80;;;;;;;23.38;52.96;100445.09;1707692;82;21073;-72
2021/08/03 07:39:49;;;;;;;4.07;3.40;;;;;;;23.44;52.21;100436.69;1706295;82;21038;-73
2021/08/03 07:42:15;;;;;;;5.50;3.80;;;;;;;23.44;52.13;100444.87;1702808;82;21106;-72
2021/08/03 07:44:43;;;;;;;5.90;3.33;;;;;;;23.44;51.66;100444.87;1708009;82;21084;-72
2021/08/03 07:47:09;;;;;;;6.10;4.30;;;;;;;23.39;51.42;100445.89;1706300;82;21542;-71
2021/08/03 07:49:36;;;;;;;9.07;3.90;;;;;;;23.41;51.50;100442.25;1703261;82;21179;-72
2021/08/03 07:52:05;;;;;;;5.27;3.47;;;;;;;23.49;51.41;100438.58;1693069;82;21030;-70
2021/08/03 07:54:34;;;;;;;4.97;3.63;;;;;;;23.60;51.50;100438.32;1709721;82;21074;-72
2021/08/03 07:57:01;;;;;;;4.53;3.77;;;;;;;23.74;51.42;100440.67;1713760;82;21151;-72
2021/08/03 07:59:27;;;;;;;5.53;3.13;;;;;;;23.84;50.62;100438.00;1701374;84;21078;-72
2021/08/03 08:01:54;;;;;;;4.43;3.43;;;;;;;23.89;49.82;100444.58;1703196;82;21125;-73
2021/08/03 08:04:22;;;;;;;4.10;3.57;;;;;;;23.96;49.36;100436.58;1702850;83;21071;-72
2021/08/03 08:06:51;;;;;;;4.97;3.40;;;;;;;24.03;49.28;100435.39;1706102;82;21102;-71
2021/08/03 08:09:18;;;;;;;4.37;3.13;;;;;;;24.13;49.01;100431.35;1706289;82;21553;-72
2021/08/03 08:11:44;;;;;;;5.37;3.13;;;;;;;24.27;48.78;100432.27;1707521;82;21088;-71
2021/08/03 08:14:11;;;;;;;5.57;3.20;;;;;;;24.36;48.53;100431.53;1699117;82;21009;-73
2021/08/03 08:16:40;;;;;;;4.40;3.13;;;;;;;24.37;47.26;100424.13;1702028;82;21132;-73
2021/08/03 08:19:06;;;;;;;5.20;3.70;;;;;;;24.41;46.59;100420.94;1703031;82;21558;-71
2021/08/03 08:21:33;;;;;;;6.10;4.10;;;;;;;24.30;46.78;100428.84;1704897;82;21124;-71
2021/08/03 08:24:02;;;;;;;5.30;3.60;;;;;;;24.23;47.19;100418.55;1705672;82;21126;-70
2021/08/03 08:26:28;;;;;;;4.03;3.20;;;;;;;24.32;47.46;100422.47;1702349;82;21057;-72
2021/08/03 08:28:55;;;;;;;4.73;3.10;;;;;;;24.43;46.50;100424.90;1714688;82;21191;-73
2021/08/03 08:31:22;;;;;;;4.60;3.00;;;;;;;24.48;45.71;100430.11;1708283;82;21551;-73
2021/08/03 08:33:49;;;;;;;5.53;2.87;;;;;;;24.48;44.86;100431.47;1722869;81;21050;-72
2021/08/03 08:36:16;;;;;;;5.80;3.23;;;;;;;24.52;44.76;100430.97;1727252;81;21046;-72
2021/08/03 08:38:43;;;;;;;3.97;2.90;;;;;;;24.56;45.10;100431.84;1734633;82;21061;-72
2021/08/03 08:41:13;;;;;;;5.03;3.00;;;;;;;24.60;45.03;100435.23;1720993;81;21644;-73
2021/08/03 08:43:41;;;;;;;4.10;3.00;;;;;;;24.56;44.85;100431.84;1665836;84;21667;-72
2021/08/03 08:46:09;;;;;;;4.57;2.90;;;;;;;24.53;44.71;100426.30;1699131;83;21160;-72
2021/08/03 08:48:37;;;;;;;8.90;3.17;;;;;;;24.61;44.78;100425.88;1724057;83;21046;-72
2021/08/03 08:51:06;;;;;;;4.40;2.80;;;;;;;24.68;45.12;100430.14;1709901;82;21121;-72
2021/08/03 08:53:34;;;;;;;5.00;3.10;;;;;;;24.68;44.33;100434.23;1705415;82;21026;-73
2021/08/03 08:56:03;;;;;;;5.40;2.93;;;;;;;24.71;44.10;100429.42;1710424;82;21608;-72
2021/08/03 08:58:33;;;;;;;5.60;3.10;;;;;;;24.80;44.13;100425.94;1711877;82;21018;-72
2021/08/03 09:01:00;;;;;;;4.40;2.83;;;;;;;24.91;43.83;100424.80;1714877;82;21057;-71
2021/08/03 09:03:28;;;;;;;5.10;3.70;;;;;;;25.03;43.52;100419.21;1707611;82;20985;-72
2021/08/03 09:06:05;;;;;;;4.20;3.03;;;;;;;25.10;42.82;100422.09;1678297;83;21065;-72
2021/08/03 09:08:46;;;;;;;5.60;2.93;;;;;;;25.02;43.45;100424.47;1712667;82;22082;-71
2021/08/03 09:11:15;;;;;;;4.23;2.70;;;;;;;25.04;43.19;100422.97;1740137;81;21050;-71
2021/08/03 09:13:54;;;;;;;4.23;2.80;;;;;;;25.16;43.18;100419.33;1730533;81;21109;-71
2021/08/03 09:16:26;;;;;;;3.10;2.60;;;;;;;25.15;42.32;100415.02;1698139;82;21050;-72
2021/08/03 09:18:54;;;;;;;6.00;3.80;;;;;;;25.19;43.15;100413.14;1723821;83;21058;-72
2021/08/03 09:21:28;;;;;;;5.47;3.40;;;;;;;25.26;42.83;100409.77;1723552;81;21657;-72
2021/08/03 09:24:01;;;;;;;7.63;5.07;;;;;;;25.21;42.85;100404.59;1698358;82;21078;-72
2021/08/03 09:26:46;;;;;;;5.70;3.30;;;;;;;25.29;43.59;100402.78;1701452;82;21160;-72
2021/08/03 09:29:16;;;;;;;3.93;2.80;;;;;;;25.38;42.63;100401.42;1709852;82;21018;-72
2021/08/03 09:31:56;;;;;;;4.27;2.63;;;;;;;25.47;42.53;100401.20;1706925;82;21081;-72
2021/08/03 09:34:23;;;;;;;4.37;2.73;;;;;;;25.55;41.74;100408.38;1703983;82;21550;-72
2021/08/03 09:36:59;;;;;;;3.77;2.80;;;;;;;25.63;41.12;100400.54;1692374;82;21074;-72
2021/08/03 09:39:45;;;;;;;4.07;2.57;;;;;;;25.68;40.65;100394.75;1715187;82;21026;-71
2021/08/03 09:42:17;;;;;;;4.37;3.03;;;;;;;25.79;41.10;100391.41;1704472;82;21636;-71
2021/08/03 09:44:52;;;;;;;7.20;3.05;;;;;;;25.85;41.77;100393.52;1707835;82;21039;-71
2021/08/03 09:47:20;;;;;;;4.83;2.67;;;;;;;25.88;40.90;100381.84;1717864;81;21537;-72
2021/08/03 09:49:52;;;;;;;4.70;2.50;;;;;;;25.85;41.63;100385.30;1713980;82;21020;-72
2021/08/03 09:52:21;;;;;;;5.23;2.90;;;;;;;25.86;40.92;100388.83;1709619;82;21091;-73
2021/08/03 09:54:48;;;;;;;3.90;2.60;;;;;;;25.83;40.59;100389.00;1697503;82;21015;-72
2021/08/03 09:57:24;;;;;;;3.60;2.40;;;;;;;25.90;40.19;100380.91;1716399;81;21061;-71
2021/08/03 09:59:54;;;;;;;3.30;2.60;;;;;;;26.04;40.16;100379.56;1716196;81;21034;-72
2021/08/03 10:02:24;;;;;;;3.17;2.77;;;;;;;26.18;39.90;100377.05;1725353;81;21058;-72
2021/08/03 10:04:52;;;;;;;5.93;3.17;;;;;;;26.22;40.35;100375.73;1719788;81;21082;-72
2021/08/03 10:07:19;;;;;;;3.07;2.57;;;;;;;26.24;40.07;100374.22;1682994;83;21097;-72
2021/08/03 10:09:48;;;;;;;4.33;2.60;;;;;;;26.27;39.70;100378.17;1720170;81;21586;-72
2021/08/03 10:12:15;;;;;;;3.50;2.50;;;;;;;26.29;39.93;100373.10;1736417;81;21887;-72
2021/08/03 10:14:44;;;;;;;3.37;2.53;;;;;;;26.43;40.16;100376.86;1732569;81;21534;-72
2021/08/03 10:17:13;;;;;;;3.80;2.53;;;;;;;26.58;40.17;100366.13;1727313;83;21078;-72
2021/08/03 10:19:40;;;;;;;3.47;2.43;;;;;;;26.81;39.46;100371.53;1709172;81;21034;-74
2021/08/03 10:22:30;;;;;;;3.97;2.40;;;;;;;26.95;37.83;100366.25;1710169;82;21082;-70
2021/08/03 10:25:03;;;;;;;4.50;2.47;;;;;;;26.97;38.36;100373.50;1708075;82;21602;-72
2021/08/03 10:27:49;;;;;;;4.40;2.60;;;;;;;26.76;38.74;100371.28;1708438;82;21074;-71
2021/08/03 10:30:34;;;;;;;4.50;2.50;;;;;;;26.62;38.50;100377.36;1712399;82;21097;-72
2021/08/03 10:33:10;;;;;;;3.57;2.10;;;;;;;26.60;38.21;100373.41;1699317;82;21126;-72
2021/08/03 10:35:49;;;;;;;2.60;2.13;;;;;;;26.68;38.36;100373.70;1707792;82;21616;-72
2021/08/03 10:38:20;;;;;;;3.72;2.50;;;;;;;26.78;37.02;100368.16;1700860;82;21648;-71
2021/08/03 10:40:56;;;;;;;4.08;2.22;;;;;;;26.84;37.40;100367.45;1694362;82;21110;-72
2021/08/03 10:43:36;;;;;;;3.57;2.10;;;;;;;26.90;38.34;100368.72;1710320;82;21615;-71
2021/08/03 10:46:17;;;;;;;3.07;1.90;;;;;;;27.02;37.60;100366.33;1699869;82;21098;-72
2021/08/03 10:48:45;;;;;;;4.17;2.37;;;;;;;27.09;37.09;100372.48;1696427;82;21665;-71
2021/08/03 10:51:20;;;;;;;4.03;2.20;;;;;;;27.11;36.43;100365.47;1703396;82;21008;-72
2021/08/03 10:54:01;;;;;;;2.73;2.03;;;;;;;27.10;35.82;100363.08;1704482;82;21690;-71
2021/08/03 10:56:29;;;;;;;3.98;2.40;;;;;;;27.05;35.84;100365.58;1704471;82;21011;-71
2021/08/03 10:59:36;;;;;;;3.13;2.27;;;;;;;26.81;36.52;100377.00;1698554;83;21034;-71
2021/08/03 11:02:08;;;;;;;6.00;3.13;;;;;;;26.51;36.73;100370.92;1715545;82;21118;-71
2021/08/03 11:04:55;;;;;;;4.33;2.57;;;;;;;26.13;37.72;100367.80;1695783;83;21163;-73
2021/08/03 11:07:30;;;;;;;4.27;2.10;;;;;;;25.95;38.48;100376.48;1703076;82;21084;-71
2021/08/03 11:10:02;;;;;;;3.87;2.20;;;;;;;25.97;38.03;100377.50;1702877;82;20979;-71
2021/08/03 11:12:43;;;;;;;3.33;2.30;;;;;;;26.09;37.30;100376.50;1708390;82;21528;-70
2021/08/03 11:15:25;;;;;;;4.15;2.45;;;;;;;26.16;37.69;100366.48;1713380;82;21065;-70
2021/08/03 11:17:56;;;;;;;;;;;;;;;26.17;38.21;100370.00;1704305;82;21146;-70
2021/08/03 11:20:46;;;;;;;3.30;2.50;;;;;;;26.15;37.92;100361.36;1685437;83;20192;-70
2021/08/03 11:23:16;;;;;;;4.05;2.65;;;;;;;26.06;38.22;100367.11;1709231;82;21061;-70
2021/08/03 11:25:46;;;;;;;4.42;2.20;;;;;;;25.98;38.56;100363.23;1714489;82;21090;-70
2021/08/03 11:28:22;;;;;;;3.17;2.60;;;;;;;25.98;38.79;100350.92;1700985;82;21081;-70
2021/08/03 11:30:51;;;;;;;3.23;2.50;;;;;;;26.09;39.59;100347.77;1696653;83;21138;-71
2021/08/03 11:33:20;;;;;;;2.83;2.10;;;;;;;26.17;38.17;100349.47;1704608;82;21514;-70
2021/08/03 11:35:47;;;;;;;2.53;2.00;;;;;;;26.27;37.88;100343.37;1714177;82;21014;-71
2021/08/03 11:38:17;;;;;;;4.27;2.27;;;;;;;26.36;37.65;100341.16;1705385;82;21069;-70
2021/08/03 11:40:44;;;;;;;4.20;2.20;;;;;;;26.54;37.71;100340.64;1713065;83;20999;-70
2021/08/03 11:43:11;;;;;;;2.67;1.90;;;;;;;26.73;38.02;100343.25;1710340;82;21122;-75